sensor_id;sensor_type;location;lat;lon;timestamp;pressure;altitude;pressure_sealevel;temperature;humidity
3150;BME280;32503;47.748;8.960;2023-02-20T00:01:57;98069.78;;;10.76;56.37
3150;BME280;32503;47.748;8.960;2023-02-20T00:04:24;98075.28;;;10.68;56.85
3150;BME280;32503;47.748;8.960;2023-02-20T00:06:51;98082.56;;;10.67;56.88
3150;BME280;32503;47.748;8.960;2023-02-20T00:09:18;98062.75;;;10.54;57.49
3150;BME280;32503;47.748;8.960;2023-02-20T00:11:45;98080.84;;;10.62;56.74
3150;BME280;32503;47.748;8.960;2023-02-20T00:14:12;98091.69;;;10.62;56.96
3150;BME280;32503;47.748;8.960;2023-02-20T00:16:41;98084.53;;;10.58;57.65
3150;BME280;32503;47.748;8.960;2023-02-20T00:19:11;98084.19;;;10.59;57.39
3150;BME280;32503;47.748;8.960;2023-02-20T00:21:44;98085.59;;;10.66;57.06
3150;BME280;32503;47.748;8.960;2023-02-20T00:24:12;98081.63;;;10.63;57.53
3150;BME280;32503;47.748;8.960;2023-02-20T00:26:45;98060.06;;;10.46;57.41
3150;BME280;32503;47.748;8.960;2023-02-20T00:29:15;98075.16;;;10.55;57.34
3150;BME280;32503;47.748;8.960;2023-02-20T00:31:53;98091.69;;;10.62;57.12
3150;BME280;32503;47.748;8.960;2023-02-20T00:34:22;98089.78;;;10.54;56.84
3150;BME280;32503;47.748;8.960;2023-02-20T00:36:50;98095.34;;;10.58;57.32
3150;BME280;32503;47.748;8.960;2023-02-20T00:39:17;98092.50;;;10.54;57.27
3150;BME280;32503;47.748;8.960;2023-02-20T00:41:44;98107.41;;;10.60;57.14
3150;BME280;32503;47.748;8.960;2023-02-20T00:44:11;98084.25;;;10.42;57.14
3150;BME280;32503;47.748;8.960;2023-02-20T00:46:38;98100.31;;;10.47;57.25
3150;BME280;32503;47.748;8.960;2023-02-20T00:49:07;98100.03;;;10.40;58.28
3150;BME280;32503;47.748;8.960;2023-02-20T00:51:34;98107.00;;;10.41;57.47
3150;BME280;32503;47.748;8.960;2023-02-20T00:54:01;98107.16;;;10.36;57.90
3150;BME280;32503;47.748;8.960;2023-02-20T00:56:28;98106.69;;;10.34;58.19
3150;BME280;32503;47.748;8.960;2023-02-20T00:58:55;98113.56;;;10.31;58.04
3150;BME280;32503;47.748;8.960;2023-02-20T01:01:23;98104.94;;;10.29;57.99
3150;BME280;32503;47.748;8.960;2023-02-20T01:03:50;98102.75;;;10.31;58.73
3150;BME280;32503;47.748;8.960;2023-02-20T01:06:19;98104.81;;;10.34;58.20
3150;BME280;32503;47.748;8.960;2023-02-20T01:08:46;98102.88;;;10.35;57.60
3150;BME280;32503;47.748;8.960;2023-02-20T01:11:13;98107.81;;;10.33;58.14
3150;BME280;32503;47.748;8.960;2023-02-20T01:13:40;98096.84;;;10.29;57.62
3150;BME280;32503;47.748;8.960;2023-02-20T01:16:07;98098.72;;;10.29;58.33
3150;BME280;32503;47.748;8.960;2023-02-20T01:18:34;98098.28;;;10.18;57.76
3150;BME280;32503;47.748;8.960;2023-02-20T01:21:01;98082.88;;;10.18;58.27
3150;BME280;32503;47.748;8.960;2023-02-20T01:23:30;98097.63;;;10.21;58.50
3150;BME280;32503;47.748;8.960;2023-02-20T01:25:57;98101.66;;;10.15;57.96
3150;BME280;32503;47.748;8.960;2023-02-20T01:28:24;98091.31;;;10.08;58.56
3150;BME280;32503;47.748;8.960;2023-02-20T01:30:51;98092.75;;;9.97;59.13
3150;BME280;32503;47.748;8.960;2023-02-20T01:33:18;98105.78;;;9.95;59.47
3150;BME280;32503;47.748;8.960;2023-02-20T01:35:45;98108.47;;;9.95;59.04
3150;BME280;32503;47.748;8.960;2023-02-20T01:38:12;98106.91;;;9.94;58.46
3150;BME280;32503;47.748;8.960;2023-02-20T01:40:46;98110.25;;;9.91;58.65
3150;BME280;32503;47.748;8.960;2023-02-20T01:43:14;98112.94;;;9.82;59.11
3150;BME280;32503;47.748;8.960;2023-02-20T01:45:42;98109.31;;;9.69;59.57
3150;BME280;32503;47.748;8.960;2023-02-20T01:48:19;98099.75;;;9.54;59.63
3150;BME280;32503;47.748;8.960;2023-02-20T01:50:48;98115.00;;;9.59;59.22
3150;BME280;32503;47.748;8.960;2023-02-20T01:53:20;98108.16;;;9.53;60.07
3150;BME280;32503;47.748;8.960;2023-02-20T01:55:53;98114.53;;;9.57;59.55
3150;BME280;32503;47.748;8.960;2023-02-20T01:58:26;98111.50;;;9.49;59.91
3150;BME280;32503;47.748;8.960;2023-02-20T02:00:57;98111.19;;;9.42;59.64
3150;BME280;32503;47.748;8.960;2023-02-20T02:03:29;98107.03;;;9.36;59.74
3150;BME280;32503;47.748;8.960;2023-02-20T02:06:00;98104.50;;;9.31;60.07
3150;BME280;32503;47.748;8.960;2023-02-20T02:08:29;98111.50;;;9.32;59.71
3150;BME280;32503;47.748;8.960;2023-02-20T02:11:01;98080.66;;;9.16;59.34
3150;BME280;32503;47.748;8.960;2023-02-20T02:13:28;98076.06;;;9.07;59.28
3150;BME280;32503;47.748;8.960;2023-02-20T02:16:06;98098.28;;;9.22;60.16
3150;BME280;32503;47.748;8.960;2023-02-20T02:18:51;98098.75;;;9.15;60.73
3150;BME280;32503;47.748;8.960;2023-02-20T02:22:06;98094.28;;;9.02;61.10
3150;BME280;32503;47.748;8.960;2023-02-20T02:25:18;98065.50;;;8.80;61.02
3150;BME280;32503;47.748;8.960;2023-02-20T02:28:29;98079.97;;;8.92;61.16
3150;BME280;32503;47.748;8.960;2023-02-20T02:35:19;98063.69;;;8.66;61.14
3150;BME280;32503;47.748;8.960;2023-02-20T02:38:03;98067.19;;;8.58;60.94
3150;BME280;32503;47.748;8.960;2023-02-20T02:40:40;98087.00;;;8.62;61.81
3150;BME280;32503;47.748;8.960;2023-02-20T02:43:14;98072.28;;;8.37;62.71
3150;BME280;32503;47.748;8.960;2023-02-20T02:45:50;98085.66;;;8.42;62.26
3150;BME280;32503;47.748;8.960;2023-02-20T02:48:27;98100.09;;;8.46;62.21
3150;BME280;32503;47.748;8.960;2023-02-20T02:51:01;98089.13;;;8.43;62.69
3150;BME280;32503;47.748;8.960;2023-02-20T02:53:32;98086.78;;;8.50;62.18
3150;BME280;32503;47.748;8.960;2023-02-20T02:56:00;98096.91;;;8.44;62.15
3150;BME280;32503;47.748;8.960;2023-02-20T02:58:46;98088.75;;;8.35;62.74
3150;BME280;32503;47.748;8.960;2023-02-20T03:01:14;98082.09;;;8.33;62.93
3150;BME280;32503;47.748;8.960;2023-02-20T03:03:44;98084.94;;;8.28;62.71
3150;BME280;32503;47.748;8.960;2023-02-20T03:06:15;98055.50;;;8.09;63.20
3150;BME280;32503;47.748;8.960;2023-02-20T03:08:48;98075.53;;;8.25;63.42
3150;BME280;32503;47.748;8.960;2023-02-20T03:11:24;98077.59;;;8.20;63.59
3150;BME280;32503;47.748;8.960;2023-02-20T03:13:58;98044.19;;;7.98;63.53
3150;BME280;32503;47.748;8.960;2023-02-20T03:16:50;98074.22;;;8.14;63.26
3150;BME280;32503;47.748;8.960;2023-02-20T03:19:29;98073.56;;;8.08;63.43
3150;BME280;32503;47.748;8.960;2023-02-20T03:21:59;98086.84;;;8.05;63.37
3150;BME280;32503;47.748;8.960;2023-02-20T03:24:29;98080.34;;;8.06;63.47
3150;BME280;32503;47.748;8.960;2023-02-20T03:27:18;98057.00;;;7.92;62.80
3150;BME280;32503;47.748;8.960;2023-02-20T03:29:46;98068.00;;;8.05;62.50
3150;BME280;32503;47.748;8.960;2023-02-20T03:32:16;98058.31;;;8.04;63.06
3150;BME280;32503;47.748;8.960;2023-02-20T03:35:02;98064.91;;;7.97;62.98
3150;BME280;32503;47.748;8.960;2023-02-20T03:37:49;98056.25;;;7.78;62.61
3150;BME280;32503;47.748;8.960;2023-02-20T03:40:37;98057.19;;;7.73;63.00
3150;BME280;32503;47.748;8.960;2023-02-20T03:43:22;98050.78;;;7.69;63.34
3150;BME280;32503;47.748;8.960;2023-02-20T03:45:51;98026.78;;;7.50;63.31
3150;BME280;32503;47.748;8.960;2023-02-20T03:48:27;98053.94;;;7.63;63.21
3150;BME280;32503;47.748;8.960;2023-02-20T03:50:56;98041.69;;;7.56;62.41
3150;BME280;32503;47.748;8.960;2023-02-20T03:53:35;97992.88;;;7.27;62.24
3150;BME280;32503;47.748;8.960;2023-02-20T03:56:09;98039.28;;;7.55;62.01
3150;BME280;32503;47.748;8.960;2023-02-20T03:58:42;98039.13;;;7.51;62.60
3150;BME280;32503;47.748;8.960;2023-02-20T04:01:13;98022.03;;;7.33;63.43
3150;BME280;32503;47.748;8.960;2023-02-20T04:03:47;98026.16;;;7.31;62.83
3150;BME280;32503;47.748;8.960;2023-02-20T04:06:16;98040.69;;;7.30;63.21
3150;BME280;32503;47.748;8.960;2023-02-20T04:08:50;98042.41;;;7.26;63.25
3150;BME280;32503;47.748;8.960;2023-02-20T04:11:23;98024.81;;;7.06;63.83
3150;BME280;32503;47.748;8.960;2023-02-20T04:13:53;98046.28;;;7.19;63.55
3150;BME280;32503;47.748;8.960;2023-02-20T04:16:21;98006.53;;;6.94;63.92
3150;BME280;32503;47.748;8.960;2023-02-20T04:18:49;98038.81;;;7.16;63.94
3150;BME280;32503;47.748;8.960;2023-02-20T04:21:28;98031.38;;;7.13;64.47
3150;BME280;32503;47.748;8.960;2023-02-20T04:24:04;98049.09;;;7.14;63.75
3150;BME280;32503;47.748;8.960;2023-02-20T04:26:36;98043.09;;;7.17;64.68
3150;BME280;32503;47.748;8.960;2023-02-20T04:29:04;98046.09;;;7.16;63.89
3150;BME280;32503;47.748;8.960;2023-02-20T04:31:32;98017.97;;;6.99;64.11
3150;BME280;32503;47.748;8.960;2023-02-20T04:33:59;98047.03;;;7.11;63.91
3150;BME280;32503;47.748;8.960;2023-02-20T04:36:29;98044.34;;;7.11;64.34
3150;BME280;32503;47.748;8.960;2023-02-20T04:38:57;98043.81;;;7.09;64.60
3150;BME280;32503;47.748;8.960;2023-02-20T04:41:24;98045.81;;;7.03;64.79
3150;BME280;32503;47.748;8.960;2023-02-20T04:43:53;98042.75;;;6.96;65.18
3150;BME280;32503;47.748;8.960;2023-02-20T04:46:40;98041.47;;;6.94;64.83
3150;BME280;32503;47.748;8.960;2023-02-20T04:49:07;98029.22;;;6.88;64.85
3150;BME280;32503;47.748;8.960;2023-02-20T04:51:35;98044.84;;;6.99;63.97
3150;BME280;32503;47.748;8.960;2023-02-20T04:54:02;98057.31;;;6.95;64.44
3150;BME280;32503;47.748;8.960;2023-02-20T04:56:29;98048.53;;;6.90;64.46
3150;BME280;32503;47.748;8.960;2023-02-20T04:58:57;98046.47;;;6.87;64.95
3150;BME280;32503;47.748;8.960;2023-02-20T05:01:24;98046.56;;;6.81;65.76
3150;BME280;32503;47.748;8.960;2023-02-20T05:03:51;98044.19;;;6.80;65.80
3150;BME280;32503;47.748;8.960;2023-02-20T05:06:18;98051.44;;;6.79;65.68
3150;BME280;32503;47.748;8.960;2023-02-20T05:08:47;98048.75;;;6.79;66.35
3150;BME280;32503;47.748;8.960;2023-02-20T05:11:14;98048.34;;;6.86;66.07
3150;BME280;32503;47.748;8.960;2023-02-20T05:13:41;98019.50;;;6.64;66.44
3150;BME280;32503;47.748;8.960;2023-02-20T05:16:09;98055.03;;;6.89;66.03
3150;BME280;32503;47.748;8.960;2023-02-20T05:18:38;98049.16;;;6.87;65.98
3150;BME280;32503;47.748;8.960;2023-02-20T05:21:05;98060.50;;;6.83;65.21
3150;BME280;32503;47.748;8.960;2023-02-20T05:23:50;98051.03;;;6.72;65.74
3150;BME280;32503;47.748;8.960;2023-02-20T05:26:19;98027.84;;;6.49;65.81
3150;BME280;32503;47.748;8.960;2023-02-20T05:28:47;98053.22;;;6.70;65.99
3150;BME280;32503;47.748;8.960;2023-02-20T05:31:15;98056.94;;;6.74;65.73
3150;BME280;32503;47.748;8.960;2023-02-20T05:33:42;98045.16;;;6.70;65.18
3150;BME280;32503;47.748;8.960;2023-02-20T05:36:09;98047.94;;;6.65;65.44
3150;BME280;32503;47.748;8.960;2023-02-20T05:38:37;98045.97;;;6.57;66.53
3150;BME280;32503;47.748;8.960;2023-02-20T05:41:06;98037.63;;;6.58;66.36
3150;BME280;32503;47.748;8.960;2023-02-20T05:43:33;98033.72;;;6.51;66.44
3150;BME280;32503;47.748;8.960;2023-02-20T05:46:00;98017.69;;;6.32;66.41
3150;BME280;32503;47.748;8.960;2023-02-20T05:48:29;98035.72;;;6.31;67.12
3150;BME280;32503;47.748;8.960;2023-02-20T05:50:56;98034.72;;;6.27;67.02
3150;BME280;32503;47.748;8.960;2023-02-20T05:53:26;98026.34;;;6.15;66.82
3150;BME280;32503;47.748;8.960;2023-02-20T05:55:53;98031.50;;;6.11;66.95
3150;BME280;32503;47.748;8.960;2023-02-20T05:58:20;98036.88;;;6.11;67.29
3150;BME280;32503;47.748;8.960;2023-02-20T06:00:47;98033.09;;;6.12;66.40
3150;BME280;32503;47.748;8.960;2023-02-20T06:03:15;98037.09;;;6.15;66.95
3150;BME280;32503;47.748;8.960;2023-02-20T06:05:43;98047.53;;;6.16;66.18
3150;BME280;32503;47.748;8.960;2023-02-20T06:08:10;98033.81;;;6.18;65.83
3150;BME280;32503;47.748;8.960;2023-02-20T06:10:37;98034.22;;;6.25;66.32
3150;BME280;32503;47.748;8.960;2023-02-20T06:13:04;98038.28;;;6.22;65.41
3150;BME280;32503;47.748;8.960;2023-02-20T06:15:31;98037.78;;;6.20;66.11
3150;BME280;32503;47.748;8.960;2023-02-20T06:17:59;98035.19;;;6.15;65.44
3150;BME280;32503;47.748;8.960;2023-02-20T06:20:26;98020.06;;;6.05;66.28
3150;BME280;32503;47.748;8.960;2023-02-20T06:22:54;98028.22;;;6.00;65.77
3150;BME280;32503;47.748;8.960;2023-02-20T06:25:22;98024.44;;;6.01;66.04
3150;BME280;32503;47.748;8.960;2023-02-20T06:27:49;98023.44;;;5.97;66.42
3150;BME280;32503;47.748;8.960;2023-02-20T06:30:16;98027.03;;;6.06;66.76
3150;BME280;32503;47.748;8.960;2023-02-20T06:32:43;98025.84;;;6.13;66.20
3150;BME280;32503;47.748;8.960;2023-02-20T06:35:10;98033.19;;;6.21;65.90
3150;BME280;32503;47.748;8.960;2023-02-20T06:37:37;98027.75;;;6.40;66.19
3150;BME280;32503;47.748;8.960;2023-02-20T06:40:10;98007.78;;;6.46;65.12
3150;BME280;32503;47.748;8.960;2023-02-20T06:42:38;98036.78;;;6.86;64.82
3150;BME280;32503;47.748;8.960;2023-02-20T06:45:06;98002.56;;;6.77;63.85
3150;BME280;32503;47.748;8.960;2023-02-20T06:47:33;98017.47;;;6.97;63.11
3150;BME280;32503;47.748;8.960;2023-02-20T06:50:00;98045.50;;;7.19;63.09
3150;BME280;32503;47.748;8.960;2023-02-20T06:52:28;98014.16;;;7.00;63.34
3150;BME280;32503;47.748;8.960;2023-02-20T06:54:55;98030.03;;;7.25;63.19
3150;BME280;32503;47.748;8.960;2023-02-20T06:57:25;98038.25;;;7.42;63.07
3150;BME280;32503;47.748;8.960;2023-02-20T06:59:52;98038.34;;;7.73;63.22
3150;BME280;32503;47.748;8.960;2023-02-20T07:02:19;98042.69;;;8.14;62.12
3150;BME280;32503;47.748;8.960;2023-02-20T07:04:50;98049.28;;;8.71;61.36
3150;BME280;32503;47.748;8.960;2023-02-20T07:07:19;98044.16;;;9.27;59.68
3150;BME280;32503;47.748;8.960;2023-02-20T07:09:46;98043.19;;;9.75;57.68
3150;BME280;32503;47.748;8.960;2023-02-20T07:12:14;98049.94;;;10.25;56.33
3150;BME280;32503;47.748;8.960;2023-02-20T07:14:42;98048.97;;;10.77;54.80
3150;BME280;32503;47.748;8.960;2023-02-20T07:17:09;98015.63;;;11.15;53.30
3150;BME280;32503;47.748;8.960;2023-02-20T07:19:36;98029.44;;;11.76;51.46
3150;BME280;32503;47.748;8.960;2023-02-20T07:22:03;98043.19;;;12.38;48.79
3150;BME280;32503;47.748;8.960;2023-02-20T07:24:30;98044.00;;;12.76;48.45
3150;BME280;32503;47.748;8.960;2023-02-20T07:27:02;98047.38;;;13.34;47.40
3150;BME280;32503;47.748;8.960;2023-02-20T07:29:31;98048.19;;;13.91;46.34
3150;BME280;32503;47.748;8.960;2023-02-20T07:32:00;98038.84;;;14.36;45.32
3150;BME280;32503;47.748;8.960;2023-02-20T07:34:27;98037.81;;;14.89;44.33
3150;BME280;32503;47.748;8.960;2023-02-20T07:36:54;98039.97;;;15.34;43.19
3150;BME280;32503;47.748;8.960;2023-02-20T07:39:21;98041.53;;;15.90;41.70
3150;BME280;32503;47.748;8.960;2023-02-20T07:41:49;98038.00;;;16.33;40.71
3150;BME280;32503;47.748;8.960;2023-02-20T07:44:17;98047.72;;;16.80;39.69
3150;BME280;32503;47.748;8.960;2023-02-20T07:46:44;98039.69;;;17.14;39.52
3150;BME280;32503;47.748;8.960;2023-02-20T07:49:12;98036.69;;;17.53;38.66
3150;BME280;32503;47.748;8.960;2023-02-20T07:51:39;98039.53;;;17.94;38.12
3150;BME280;32503;47.748;8.960;2023-02-20T07:54:06;98038.72;;;18.31;37.46
3150;BME280;32503;47.748;8.960;2023-02-20T07:56:33;98040.31;;;18.32;36.01
3150;BME280;32503;47.748;8.960;2023-02-20T07:59:00;98032.53;;;18.37;36.34
3150;BME280;32503;47.748;8.960;2023-02-20T08:01:27;98026.34;;;18.44;36.24
3150;BME280;32503;47.748;8.960;2023-02-20T08:03:55;98040.88;;;18.52;36.19
3150;BME280;32503;47.748;8.960;2023-02-20T08:06:23;98039.75;;;18.56;35.69
3150;BME280;32503;47.748;8.960;2023-02-20T08:08:51;98031.25;;;18.28;36.15
3150;BME280;32503;47.748;8.960;2023-02-20T08:11:19;98016.22;;;18.07;37.01
3150;BME280;32503;47.748;8.960;2023-02-20T08:13:47;98033.84;;;18.13;36.56
3150;BME280;32503;47.748;8.960;2023-02-20T08:16:14;98035.69;;;17.98;37.19
3150;BME280;32503;47.748;8.960;2023-02-20T08:18:41;98041.34;;;17.83;37.43
3150;BME280;32503;47.748;8.960;2023-02-20T08:21:09;98042.00;;;17.72;37.87
3150;BME280;32503;47.748;8.960;2023-02-20T08:23:38;98035.09;;;17.52;38.39
3150;BME280;32503;47.748;8.960;2023-02-20T08:26:06;98034.59;;;17.42;38.44
3150;BME280;32503;47.748;8.960;2023-02-20T08:28:33;98029.78;;;17.32;38.61
3150;BME280;32503;47.748;8.960;2023-02-20T08:31:00;98028.00;;;17.17;39.26
3150;BME280;32503;47.748;8.960;2023-02-20T08:33:27;98024.94;;;17.22;39.56
3150;BME280;32503;47.748;8.960;2023-02-20T08:35:54;98028.13;;;17.28;39.12
3150;BME280;32503;47.748;8.960;2023-02-20T08:38:26;98027.88;;;17.36;39.11
3150;BME280;32503;47.748;8.960;2023-02-20T08:40:55;98009.13;;;17.35;39.18
3150;BME280;32503;47.748;8.960;2023-02-20T08:43:22;98011.06;;;17.34;39.25
3150;BME280;32503;47.748;8.960;2023-02-20T08:45:50;98019.44;;;17.49;39.71
3150;BME280;32503;47.748;8.960;2023-02-20T08:48:17;98010.47;;;17.52;39.45
3150;BME280;32503;47.748;8.960;2023-02-20T08:50:44;98019.34;;;17.41;39.15
3150;BME280;32503;47.748;8.960;2023-02-20T08:53:11;98008.97;;;17.24;39.54
3150;BME280;32503;47.748;8.960;2023-02-20T08:55:38;98010.22;;;17.30;40.13
3150;BME280;32503;47.748;8.960;2023-02-20T08:58:07;97993.66;;;17.16;40.25
3150;BME280;32503;47.748;8.960;2023-02-20T09:00:34;98009.72;;;17.21;40.16
3150;BME280;32503;47.748;8.960;2023-02-20T09:03:02;97984.41;;;16.97;40.34
3150;BME280;32503;47.748;8.960;2023-02-20T09:05:32;97991.56;;;17.05;40.64
3150;BME280;32503;47.748;8.960;2023-02-20T09:07:59;97983.94;;;17.22;40.61
3150;BME280;32503;47.748;8.960;2023-02-20T09:10:27;97991.75;;;17.54;40.33
3150;BME280;32503;47.748;8.960;2023-02-20T09:12:54;97984.47;;;17.65;39.67
3150;BME280;32503;47.748;8.960;2023-02-20T09:15:22;97984.19;;;17.74;39.68
3150;BME280;32503;47.748;8.960;2023-02-20T09:17:51;97974.06;;;17.78;39.73
3150;BME280;32503;47.748;8.960;2023-02-20T09:20:20;97953.97;;;17.97;39.53
3150;BME280;32503;47.748;8.960;2023-02-20T09:22:48;97975.31;;;18.22;38.81
3150;BME280;32503;47.748;8.960;2023-02-20T09:25:16;97981.19;;;18.24;39.51
3150;BME280;32503;47.748;8.960;2023-02-20T09:27:44;97978.97;;;18.40;39.37
3150;BME280;32503;47.748;8.960;2023-02-20T09:30:15;97970.41;;;18.45;39.06
3150;BME280;32503;47.748;8.960;2023-02-20T09:32:45;97966.13;;;18.48;38.83
3150;BME280;32503;47.748;8.960;2023-02-20T09:35:17;97973.63;;;18.62;38.88
3150;BME280;32503;47.748;8.960;2023-02-20T09:37:44;97970.91;;;18.62;38.76
3150;BME280;32503;47.748;8.960;2023-02-20T09:40:13;97972.56;;;18.77;38.67
3150;BME280;32503;47.748;8.960;2023-02-20T09:42:58;97967.47;;;18.75;38.54
3150;BME280;32503;47.748;8.960;2023-02-20T09:45:31;97962.91;;;18.90;38.51
3150;BME280;32503;47.748;8.960;2023-02-20T09:48:16;97946.13;;;18.96;38.20
3150;BME280;32503;47.748;8.960;2023-02-20T09:50:50;97946.16;;;19.03;38.15
3150;BME280;32503;47.748;8.960;2023-02-20T09:53:24;97956.25;;;18.91;38.41
3150;BME280;32503;47.748;8.960;2023-02-20T09:55:55;97957.91;;;19.07;38.02
3150;BME280;32503;47.748;8.960;2023-02-20T09:58:27;97939.91;;;19.09;38.10
3150;BME280;32503;47.748;8.960;2023-02-20T10:01:00;97954.50;;;19.31;37.88
3150;BME280;32503;47.748;8.960;2023-02-20T10:03:35;97938.09;;;19.53;37.10
3150;BME280;32503;47.748;8.960;2023-02-20T10:06:15;97951.84;;;19.64;36.93
3150;BME280;32503;47.748;8.960;2023-02-20T10:08:43;97951.03;;;19.49;36.49
3150;BME280;32503;47.748;8.960;2023-02-20T10:11:17;97949.81;;;19.39;35.60
3150;BME280;32503;47.748;8.960;2023-02-20T10:13:54;97957.94;;;19.14;36.31
3150;BME280;32503;47.748;8.960;2023-02-20T10:16:31;97946.97;;;19.14;37.48
3150;BME280;32503;47.748;8.960;2023-02-20T10:19:16;97952.50;;;19.28;37.38
3150;BME280;32503;47.748;8.960;2023-02-20T10:21:55;97947.06;;;19.39;36.67
3150;BME280;32503;47.748;8.960;2023-02-20T10:24:45;97937.13;;;19.06;36.61
3150;BME280;32503;47.748;8.960;2023-02-20T10:27:35;97947.38;;;19.16;36.68
3150;BME280;32503;47.748;8.960;2023-02-20T10:30:08;97953.34;;;19.36;37.30
3150;BME280;32503;47.748;8.960;2023-02-20T10:32:44;97928.22;;;19.30;36.50
3150;BME280;32503;47.748;8.960;2023-02-20T10:35:21;97949.03;;;19.39;36.75
3150;BME280;32503;47.748;8.960;2023-02-20T10:37:53;97933.63;;;19.05;36.27
3150;BME280;32503;47.748;8.960;2023-02-20T10:40:25;97936.06;;;18.07;38.18
3150;BME280;32503;47.748;8.960;2023-02-20T10:43:01;97939.22;;;18.12;39.04
3150;BME280;32503;47.748;8.960;2023-02-20T10:45:40;97925.97;;;18.14;38.93
3150;BME280;32503;47.748;8.960;2023-02-20T10:48:12;97938.94;;;18.25;39.15
3150;BME280;32503;47.748;8.960;2023-02-20T10:50:49;97940.47;;;17.77;38.79
3150;BME280;32503;47.748;8.960;2023-02-20T10:53:24;97934.69;;;17.49;39.36
3150;BME280;32503;47.748;8.960;2023-02-20T10:56:01;97935.50;;;17.49;39.99
3150;BME280;32503;47.748;8.960;2023-02-20T10:58:37;97903.47;;;17.50;40.27
3150;BME280;32503;47.748;8.960;2023-02-20T11:01:09;97922.75;;;17.64;39.85
3150;BME280;32503;47.748;8.960;2023-02-20T11:03:44;97902.25;;;17.85;40.38
3150;BME280;32503;47.748;8.960;2023-02-20T11:06:20;97911.88;;;17.71;38.65
3150;BME280;32503;47.748;8.960;2023-02-20T11:08:48;97914.47;;;17.57;39.38
3150;BME280;32503;47.748;8.960;2023-02-20T11:11:29;97905.16;;;17.61;39.26
3150;BME280;32503;47.748;8.960;2023-02-20T11:13:59;97847.13;;;16.74;40.09
3150;BME280;32503;47.748;8.960;2023-02-20T11:16:31;97890.88;;;17.08;40.62
3150;BME280;32503;47.748;8.960;2023-02-20T11:19:14;97889.66;;;17.01;40.60
3150;BME280;32503;47.748;8.960;2023-02-20T11:21:48;97883.50;;;17.12;40.80
3150;BME280;32503;47.748;8.960;2023-02-20T11:24:32;97890.63;;;17.20;40.83
3150;BME280;32503;47.748;8.960;2023-02-20T11:27:06;97873.25;;;17.35;39.47
3150;BME280;32503;47.748;8.960;2023-02-20T11:29:54;97881.94;;;17.44;39.79
3150;BME280;32503;47.748;8.960;2023-02-20T11:32:29;97880.53;;;17.61;39.25
3150;BME280;32503;47.748;8.960;2023-02-20T11:35:21;97876.47;;;17.86;38.94
3150;BME280;32503;47.748;8.960;2023-02-20T11:38:15;97868.09;;;18.12;38.23
3150;BME280;32503;47.748;8.960;2023-02-20T11:40:38;97865.91;;;18.36;37.34
3150;BME280;32503;47.748;8.960;2023-02-20T11:43:10;97858.94;;;18.49;37.24
3150;BME280;32503;47.748;8.960;2023-02-20T11:45:40;97842.75;;;18.23;36.79
3150;BME280;32503;47.748;8.960;2023-02-20T11:48:10;97841.16;;;18.18;37.38
3150;BME280;32503;47.748;8.960;2023-02-20T11:50:39;97837.75;;;18.35;37.95
3150;BME280;32503;47.748;8.960;2023-02-20T11:53:19;97814.72;;;18.47;37.59
3150;BME280;32503;47.748;8.960;2023-02-20T11:55:47;97816.09;;;18.82;37.55
3150;BME280;32503;47.748;8.960;2023-02-20T11:58:22;97812.22;;;18.90;37.02
3150;BME280;32503;47.748;8.960;2023-02-20T12:00:51;97817.72;;;18.90;36.83
3150;BME280;32503;47.748;8.960;2023-02-20T12:03:22;97804.44;;;19.10;36.85
3150;BME280;32503;47.748;8.960;2023-02-20T12:05:50;97808.81;;;19.29;37.85
3150;BME280;32503;47.748;8.960;2023-02-20T12:08:41;97793.59;;;19.75;40.27
3150;BME280;32503;47.748;8.960;2023-02-20T12:11:12;97782.19;;;19.95;36.56
3150;BME280;32503;47.748;8.960;2023-02-20T12:13:44;97779.00;;;20.21;37.85
3150;BME280;32503;47.748;8.960;2023-02-20T12:16:35;97779.00;;;20.29;34.36
3150;BME280;32503;47.748;8.960;2023-02-20T12:19:11;97782.47;;;20.43;34.26
3150;BME280;32503;47.748;8.960;2023-02-20T12:21:58;97775.00;;;20.48;35.23
3150;BME280;32503;47.748;8.960;2023-02-20T12:24:45;97765.53;;;20.56;34.24
3150;BME280;32503;47.748;8.960;2023-02-20T12:27:33;97765.09;;;20.75;34.72
3150;BME280;32503;47.748;8.960;2023-02-20T12:30:14;97764.28;;;20.86;33.81
3150;BME280;32503;47.748;8.960;2023-02-20T12:32:55;97756.91;;;20.61;34.04
3150;BME280;32503;47.748;8.960;2023-02-20T12:35:29;97742.03;;;20.55;35.06
3150;BME280;32503;47.748;8.960;2023-02-20T12:38:27;97736.94;;;20.53;34.24
3150;BME280;32503;47.748;8.960;2023-02-20T12:41:19;97730.56;;;20.74;34.58
3150;BME280;32503;47.748;8.960;2023-02-20T12:44:02;97725.63;;;20.33;32.89
3150;BME280;32503;47.748;8.960;2023-02-20T12:46:36;97715.84;;;20.25;34.46
3150;BME280;32503;47.748;8.960;2023-02-20T12:49:24;97702.19;;;20.03;34.60
3150;BME280;32503;47.748;8.960;2023-02-20T12:52:05;97715.81;;;20.36;34.68
3150;BME280;32503;47.748;8.960;2023-02-20T12:54:44;97725.91;;;20.60;33.82
3150;BME280;32503;47.748;8.960;2023-02-20T12:57:22;97725.78;;;20.86;34.19
3150;BME280;32503;47.748;8.960;2023-02-20T12:59:58;97731.19;;;21.07;33.50
3150;BME280;32503;47.748;8.960;2023-02-20T13:02:31;97706.88;;;21.02;33.32
3150;BME280;32503;47.748;8.960;2023-02-20T13:05:00;97710.22;;;21.24;33.21
3150;BME280;32503;47.748;8.960;2023-02-20T13:07:34;97688.09;;;20.90;33.14
3150;BME280;32503;47.748;8.960;2023-02-20T13:10:09;97703.72;;;21.00;33.62
3150;BME280;32503;47.748;8.960;2023-02-20T13:12:38;97707.59;;;21.10;33.54
3150;BME280;32503;47.748;8.960;2023-02-20T13:15:23;97687.25;;;20.96;33.13
3150;BME280;32503;47.748;8.960;2023-02-20T13:17:59;97691.84;;;21.14;34.06
3150;BME280;32503;47.748;8.960;2023-02-20T13:20:34;97667.97;;;21.04;34.09
3150;BME280;32503;47.748;8.960;2023-02-20T13:23:23;97669.81;;;21.17;33.66
3150;BME280;32503;47.748;8.960;2023-02-20T13:25:52;97669.31;;;21.30;33.66
3150;BME280;32503;47.748;8.960;2023-02-20T13:28:37;97658.72;;;21.28;33.20
3150;BME280;32503;47.748;8.960;2023-02-20T13:31:19;97651.22;;;21.36;33.75
3150;BME280;32503;47.748;8.960;2023-02-20T13:33:49;97651.53;;;21.42;33.73
3150;BME280;32503;47.748;8.960;2023-02-20T13:36:40;97640.50;;;21.49;33.53
3150;BME280;32503;47.748;8.960;2023-02-20T13:39:44;97649.50;;;21.53;32.98
3150;BME280;32503;47.748;8.960;2023-02-20T13:42:33;97635.81;;;21.46;33.70
3150;BME280;32503;47.748;8.960;2023-02-20T13:45:37;97644.34;;;21.58;33.03
3150;BME280;32503;47.748;8.960;2023-02-20T13:48:38;97649.00;;;21.62;32.82